Terminal Aerodrome Forecast
Issued by NWS Sioux Falls, SD

Home | Current Version | Previous Version | Text Only | Print | Product List | Glossary On
Versions: 1 2 3 4 5 6 7 8 9 10 11 12 13
000
FTUS43 KFSD 220402 AAB
TAFFSD
TAF AMD
KFSD 220402Z 2204/2224 02017G26KT 6SM -SN OVC030
     FM220600 02018G30KT 2SM -SN OVC015
     FM221000 01021G29KT 1SM -SN BLSN OVC009
     FM221500 36020G30KT 1 1/2SM -SN BLSN OVC010
     FM222200 35019G29KT 4SM -SN OVC025=

USA.gov is the U.S. government's official web portal to all federal, state and local government web resources and services.